Chignik Lagoon, AK (99565)

10:55 AM AKDT on July 12, 2014 (GMT -0800)
Chignik (PAJC) Elev 16 ft | 56.31 °N, 158.37 °W | Change Station

Current weather conditions updated 19 minutes ago

Overcast
Overcast
54 °F
Feels Like 54 °F
N
8
Wind Variable Wind from SE

Today is forecast to be Cooler than yesterday. Light rain.

Today
High -- | Low -- °F
--% Chance of Precip.
Yesterday
High -- | Low -- °F
Precip. -- in
6:03 AM 11:14 PM
Full, 100% visible
Pressure 29.71 in
Visibility -9999.0 miles
Clouds Scattered Clouds 3000 ft
Mostly Cloudy 4300 ft
Overcast 8500 ft
Dew Point 46 °F
Humidity 77%
Rainfall 0.01 in
Snow Depth Not available.
UV 1 out of 12
Pollen Not available.
Air Quality Not available.
Flu Activity Sporadic
METAR PAJC 121836Z AUTO 13007KT SCT030 BKN043 OVC085 12/08 A2971 RMK AO1

More Conditions Fewer Conditions

Pressure 29.71 in
Visibility -9999.0 miles
Clouds Scattered Clouds 3000 ft
Mostly Cloudy 4300 ft
Overcast 8500 ft
Dew Point 46 °F
Humidity 77%
Rainfall 0.01 in
Snow Depth Not available.
UV 1 out of 12
Pollen Not available.
Air Quality Not available.
Flu Activity Sporadic
METAR PAJC 121836Z AUTO 13007KT SCT030 BKN043 OVC085 12/08 A2971 RMK AO1

More Conditions Fewer Conditions

10-Day Weather Forecast

Almanac

Astronomy

Jul. 12, 2014 Rise Set
Actual Time 6:03 AM AKDT 11:14 PM AKDT
Civil Twilight 5:05 AM AKDT 12:12 AM AKDT
Nautical Twilight 3:11 AM AKDT 2:33 AM AKDT
Astronomical Twilight Sun does not rise Sun does not rise
Moon 10:57 PM AKDT 6:57 AM AKDT
Length of Visible Light 19h 06m
Length of Day
17h 11m
Tomorrow will be 2m 36s shorter.
Full, 100% of the Moon is Illuminated
Today
Full
Jul 18
Last Quarter
Jul 26
New
Aug 3
First Quarter
Aug 10
Full

Today's Extremes

State Highs State Lows

Community

WunderPhotos

Upload Photos

1,732,918 photos uploaded!

WunderBlogs® & News

Nearby

Snow Depth

Station Depth Elevation
Port Graham 0 in 300 ft
Mcneil Canyon 1 in 1320 ft
Nuka Glacier 1 in 1250 ft
MF Bradley River 23 in 2300 ft
Cooper Lake 16 in 1200 ft

Earthquake Activity

City Distance Mag. Time & Date
No recent earthquake activity has been reported nearby.
Minimum magnitude displayed is 2.5.

Coastal Water Temperatures

Place Temperature
No Stations Reporting

Nearby Weather Stations

There are no personal weather stations in this area.